Time,TemperatureF,DewpointF,PressureIn,WindDirection,WindDirectionDegrees,WindSpeedMPH,WindSpeedGustMPH,Humidity,HourlyPrecipIn,Conditions,Clouds,dailyrainin,SoftwareType,DateUTC
2013-09-17 00:04:00,76.4,74.0,30.00,NE,47,5.0,6.0,93,0.00,,,0.26,weatherlink.com 1.10,2013-09-17 04:04:00,
2013-09-17 00:19:00,76.3,74.0,30.00,NE,48,6.0,7.0,93,0.00,,,0.00,weatherlink.com 1.10,2013-09-17 04:19:00,
2013-09-17 00:34:00,76.2,74.0,30.00,NE,48,4.0,7.0,93,0.00,,,0.00,weatherlink.com 1.10,2013-09-17 04:34:00,
2013-09-17 00:49:00,76.3,75.0,30.00,NE,35,6.0,9.0,94,0.00,,,0.00,weatherlink.com 1.10,2013-09-17 04:49:00,
2013-09-17 01:04:00,76.3,75.0,30.00,NE,49,6.0,9.0,94,0.00,,,0.00,weatherlink.com 1.10,2013-09-17 05:04:00,
2013-09-17 01:19:00,76.3,75.0,30.00,NE,35,7.0,9.0,94,0.00,,,0.00,weatherlink.com 1.10,2013-09-17 05:19:00,
2013-09-17 01:34:00,76.2,74.0,29.99,NE,45,7.0,9.0,94,0.00,,,0.00,weatherlink.com 1.10,2013-09-17 05:34:00,
2013-09-17 01:49:00,76.3,75.0,29.98,NE,35,6.0,9.0,94,0.00,,,0.00,weatherlink.com 1.10,2013-09-17 05:49:00,
2013-09-17 02:04:00,76.2,74.0,29.98,NE,39,6.0,8.0,94,0.00,,,0.00,weatherlink.com 1.10,2013-09-17 06:04:00,
2013-09-17 02:19:00,76.1,74.0,29.97,NE,41,6.0,9.0,94,0.00,,,0.00,weatherlink.com 1.10,2013-09-17 06:19:00,
2013-09-17 02:35:00,76.1,74.0,29.97,NE,41,4.0,7.0,94,0.00,,,0.00,weatherlink.com 1.10,2013-09-17 06:35:00,
2013-09-17 02:50:00,76.1,74.0,29.97,NE,45,6.0,8.0,94,0.00,,,0.00,weatherlink.com 1.10,2013-09-17 06:50:00,
2013-09-17 03:05:00,76.1,74.0,29.97,NE,47,5.0,7.0,94,0.00,,,0.00,weatherlink.com 1.10,2013-09-17 07:05:00,
2013-09-17 03:20:00,76.0,75.0,29.97,ENE,59,3.0,8.0,95,0.00,,,0.00,weatherlink.com 1.10,2013-09-17 07:20:00,
2013-09-17 03:35:00,76.1,75.0,29.96,ENE,70,3.0,6.0,95,0.00,,,0.00,weatherlink.com 1.10,2013-09-17 07:35:00,
2013-09-17 03:50:00,76.2,75.0,29.95,ENE,65,4.0,8.0,95,0.00,,,0.00,weatherlink.com 1.10,2013-09-17 07:50:00,
2013-09-17 04:05:00,76.1,75.0,29.95,ENE,64,3.0,7.0,95,0.00,,,0.00,weatherlink.com 1.10,2013-09-17 08:05:00,
2013-09-17 04:20:00,76.0,75.0,29.95,ENE,64,5.0,7.0,95,0.00,,,0.00,weatherlink.com 1.10,2013-09-17 08:20:00,
2013-09-17 04:35:00,75.9,74.0,29.95,ENE,64,3.0,7.0,95,0.00,,,0.00,weatherlink.com 1.10,2013-09-17 08:35:00,
2013-09-17 04:50:00,75.8,74.0,29.96,ENE,57,2.0,6.0,95,0.00,,,0.00,weatherlink.com 1.10,2013-09-17 08:50:00,
2013-09-17 05:05:00,75.7,74.0,29.96,ENE,57,3.0,5.0,95,0.00,,,0.00,weatherlink.com 1.10,2013-09-17 09:05:00,
2013-09-17 05:20:00,75.5,74.0,29.96,ENE,57,5.0,5.0,95,0.00,,,0.00,weatherlink.com 1.10,2013-09-17 09:20:00,
2013-09-17 05:35:00,75.5,74.0,29.96,NE,55,5.0,7.0,95,0.00,,,0.00,weatherlink.com 1.10,2013-09-17 09:35:00,
2013-09-17 05:50:00,75.5,74.0,29.96,NE,55,5.0,6.0,95,0.00,,,0.00,weatherlink.com 1.10,2013-09-17 09:50:00,
2013-09-17 06:05:00,75.5,74.0,29.97,NE,55,5.0,7.0,95,0.00,,,0.00,weatherlink.com 1.10,2013-09-17 10:05:00,
2013-09-17 06:20:00,75.5,74.0,29.97,NE,47,6.0,8.0,95,0.00,,,0.00,weatherlink.com 1.10,2013-09-17 10:20:00,
2013-09-17 06:35:00,75.5,74.0,29.97,NNE,33,5.0,8.0,95,0.00,,,0.00,weatherlink.com 1.10,2013-09-17 10:35:00,
2013-09-17 06:50:00,75.6,74.0,29.97,NNE,31,7.0,8.0,95,0.00,,,0.00,weatherlink.com 1.10,2013-09-17 10:50:00,
2013-09-17 07:05:00,75.7,74.0,29.98,NE,37,5.0,9.0,95,0.00,,,0.00,weatherlink.com 1.10,2013-09-17 11:05:00,
2013-09-17 07:20:00,75.7,74.0,29.98,NNE,29,5.0,7.0,95,0.00,,,0.00,weatherlink.com 1.10,2013-09-17 11:20:00,
2013-09-17 07:35:00,75.7,75.0,29.98,NNE,32,4.0,7.0,96,0.00,,,0.00,weatherlink.com 1.10,2013-09-17 11:35:00,
2013-09-17 07:50:00,76.0,75.0,30.00,NNE,22,5.0,9.0,96,0.00,,,0.00,weatherlink.com 1.10,2013-09-17 11:50:00,
2013-09-17 08:05:00,76.4,75.0,30.00,NE,37,6.0,9.0,96,0.00,,,0.00,weatherlink.com 1.10,2013-09-17 12:05:00,
2013-09-17 08:20:00,77.0,76.0,30.01,NNE,33,6.0,8.0,96,0.00,,,0.00,weatherlink.com 1.10,2013-09-17 12:20:00,
2013-09-17 08:35:00,77.5,76.0,30.01,NE,39,8.0,10.0,96,0.00,,,0.00,weatherlink.com 1.10,2013-09-17 12:35:00,
2013-09-17 08:50:00,77.9,76.0,30.01,NE,45,8.0,11.0,95,0.00,,,0.00,weatherlink.com 1.10,2013-09-17 12:50:00,
2013-09-17 09:05:00,77.8,76.0,30.01,NE,35,7.0,9.0,95,0.00,,,0.00,weatherlink.com 1.10,2013-09-17 13:05:00,
2013-09-17 09:20:00,78.5,77.0,30.01,NE,54,5.0,9.0,95,0.00,,,0.00,weatherlink.com 1.10,2013-09-17 13:20:00,
2013-09-17 09:35:00,79.4,78.0,30.02,NE,56,7.0,9.0,95,0.00,,,0.00,weatherlink.com 1.10,2013-09-17 13:35:00,
2013-09-17 09:50:00,79.9,78.0,30.02,ENE,60,5.0,10.0,94,0.00,,,0.00,weatherlink.com 1.10,2013-09-17 13:50:00,
2013-09-17 10:05:00,80.7,79.0,30.02,NE,56,4.0,11.0,94,0.00,,,0.00,weatherlink.com 1.10,2013-09-17 14:05:00,
2013-09-17 10:20:00,81.9,79.0,30.03,ENE,66,4.0,10.0,92,0.00,,,0.00,weatherlink.com 1.10,2013-09-17 14:20:00,
2013-09-17 10:35:00,82.7,80.0,30.03,NE,54,6.0,12.0,91,0.00,,,0.00,weatherlink.com 1.10,2013-09-17 14:35:00,
2013-09-17 10:50:00,83.7,80.0,30.03,ENE,70,4.0,11.0,89,0.00,,,0.00,weatherlink.com 1.10,2013-09-17 14:50:00,
2013-09-17 11:06:00,84.6,81.0,30.03,NE,41,5.0,10.0,88,0.00,,,0.00,weatherlink.com 1.10,2013-09-17 15:06:00,
2013-09-17 11:21:00,85.0,80.0,30.02,NE,43,7.0,9.0,86,0.00,,,0.00,weatherlink.com 1.10,2013-09-17 15:21:00,
2013-09-17 11:36:00,85.8,81.0,30.03,ENE,67,3.0,11.0,84,0.00,,,0.00,weatherlink.com 1.10,2013-09-17 15:36:00,
2013-09-17 11:51:00,86.1,80.0,30.02,NE,52,8.0,12.0,83,0.00,,,0.00,weatherlink.com 1.10,2013-09-17 15:51:00,
2013-09-17 12:06:00,86.5,80.0,30.02,NE,47,9.0,12.0,81,0.00,,,0.00,weatherlink.com 1.10,2013-09-17 16:06:00,
2013-09-17 12:21:00,87.3,81.0,30.02,NNE,31,7.0,10.0,82,0.00,,,0.00,weatherlink.com 1.10,2013-09-17 16:21:00,
2013-09-17 12:36:00,88.4,81.0,30.01,NNE,22,8.0,10.0,79,0.00,,,0.00,weatherlink.com 1.10,2013-09-17 16:36:00,
2013-09-17 12:51:00,89.3,81.0,30.00,NE,45,5.0,9.0,77,0.00,,,0.00,weatherlink.com 1.10,2013-09-17 16:51:00,
2013-09-17 13:06:00,89.9,81.0,29.99,ENE,60,1.0,9.0,76,0.00,,,0.00,weatherlink.com 1.10,2013-09-17 17:06:00,
2013-09-17 13:21:00,88.4,78.0,29.99,WSW,252,10.0,17.0,71,0.00,,,0.00,weatherlink.com 1.10,2013-09-17 17:21:00,
2013-09-17 13:36:00,82.1,76.0,30.00,SW,214,10.0,20.0,81,0.00,,,0.00,weatherlink.com 1.10,2013-09-17 17:36:00,
2013-09-17 13:51:00,77.0,74.0,30.02,SSE,158,17.0,24.0,89,0.74,,,0.74,weatherlink.com 1.10,2013-09-17 17:51:00,
2013-09-17 14:06:00,75.8,73.0,30.01,SE,135,0.0,9.0,91,1.65,,,1.65,weatherlink.com 1.10,2013-09-17 18:06:00,
2013-09-17 14:21:00,75.4,73.0,30.00,SE,135,0.0,2.0,91,1.87,,,1.87,weatherlink.com 1.10,2013-09-17 18:21:00,
2013-09-17 14:36:00,75.5,73.0,29.98,NNE,16,2.0,5.0,92,1.93,,,1.93,weatherlink.com 1.10,2013-09-17 18:36:00,
2013-09-17 14:51:00,75.7,74.0,29.99,North,6,2.0,5.0,93,1.14,,,1.95,weatherlink.com 1.10,2013-09-17 18:51:00,
2013-09-17 15:06:00,75.4,73.0,29.99,North,6,0.0,0.0,93,0.31,,,1.98,weatherlink.com 1.10,2013-09-17 19:06:00,
2013-09-17 15:21:00,76.0,74.0,29.98,NE,34,6.0,8.0,94,0.12,,,2.00,weatherlink.com 1.10,2013-09-17 19:21:00,
2013-09-17 15:36:00,76.2,74.0,29.98,NE,35,6.0,7.0,94,0.09,,,2.02,weatherlink.com 1.10,2013-09-17 19:36:00,
2013-09-17 15:51:00,76.3,75.0,29.97,NE,35,4.0,7.0,94,0.10,,,2.05,weatherlink.com 1.10,2013-09-17 19:51:00,
2013-09-17 16:06:00,76.1,74.0,29.96,NE,35,4.0,7.0,94,0.10,,,2.08,weatherlink.com 1.10,2013-09-17 20:06:00,
2013-09-17 16:21:00,76.2,74.0,29.95,NE,35,4.0,6.0,94,0.09,,,2.09,weatherlink.com 1.10,2013-09-17 20:21:00,
2013-09-17 16:36:00,76.4,75.0,29.95,NE,35,8.0,9.0,94,0.08,,,2.10,weatherlink.com 1.10,2013-09-17 20:36:00,
2013-09-17 16:51:00,76.1,74.0,29.94,NE,34,6.0,11.0,94,0.06,,,2.11,weatherlink.com 1.10,2013-09-17 20:51:00,
2013-09-17 17:06:00,75.9,74.0,29.93,NE,35,8.0,10.0,94,0.03,,,2.11,weatherlink.com 1.10,2013-09-17 21:06:00,
2013-09-17 17:21:00,75.8,74.0,29.93,NE,38,9.0,11.0,95,0.03,,,2.12,weatherlink.com 1.10,2013-09-17 21:21:00,
2013-09-17 17:36:00,75.8,74.0,29.92,NNE,30,7.0,14.0,95,0.02,,,2.12,weatherlink.com 1.10,2013-09-17 21:36:00,
2013-09-17 17:51:00,75.8,74.0,29.92,NE,52,9.0,12.0,95,0.01,,,2.12,weatherlink.com 1.10,2013-09-17 21:51:00,
2013-09-17 18:06:00,75.5,74.0,29.93,NE,54,6.0,9.0,95,0.01,,,2.12,weatherlink.com 1.10,2013-09-17 22:06:00,
2013-09-17 18:21:00,75.4,74.0,29.93,NE,39,6.0,7.0,95,0.00,,,2.12,weatherlink.com 1.10,2013-09-17 22:21:00,
2013-09-17 18:36:00,75.3,74.0,29.93,NE,39,3.0,6.0,95,0.00,,,2.12,weatherlink.com 1.10,2013-09-17 22:36:00,
2013-09-17 18:51:00,75.2,74.0,29.93,NE,39,2.0,4.0,95,0.00,,,2.12,weatherlink.com 1.10,2013-09-17 22:51:00,
2013-09-17 19:06:00,75.3,74.0,29.93,NE,39,0.0,4.0,95,0.00,,,2.12,weatherlink.com 1.10,2013-09-17 23:06:00,
2013-09-17 19:21:00,75.4,74.0,29.94,NE,39,0.0,4.0,95,0.00,,,2.12,weatherlink.com 1.10,2013-09-17 23:21:00,
2013-09-17 19:36:00,75.3,74.0,29.94,NE,39,2.0,4.0,95,0.00,,,2.12,weatherlink.com 1.10,2013-09-17 23:36:00,
2013-09-17 19:51:00,75.2,74.0,29.95,NE,39,2.0,3.0,95,0.00,,,2.12,weatherlink.com 1.10,2013-09-17 23:51:00,
2013-09-17 20:06:00,75.3,74.0,29.95,NE,39,3.0,4.0,95,0.00,,,2.12,weatherlink.com 1.10,2013-09-18 00:06:00,
2013-09-17 20:21:00,75.5,74.0,29.95,NE,39,3.0,5.0,95,0.00,,,2.12,weatherlink.com 1.10,2013-09-18 00:21:00,
2013-09-17 20:36:00,75.6,74.0,29.96,NE,39,4.0,6.0,95,0.00,,,2.12,weatherlink.com 1.10,2013-09-18 00:36:00,
2013-09-17 21:06:00,75.7,74.0,29.97,NE,42,5.0,6.0,95,0.00,,,2.12,weatherlink.com 1.10,2013-09-18 01:06:00,
2013-09-17 21:21:00,75.8,74.0,29.97,NE,45,4.0,8.0,95,0.00,,,2.12,weatherlink.com 1.10,2013-09-18 01:21:00,
2013-09-17 21:36:00,76.0,75.0,29.98,ENE,68,3.0,8.0,95,0.00,,,2.12,weatherlink.com 1.10,2013-09-18 01:36:00,
2013-09-17 21:51:00,76.2,75.0,29.98,ENE,65,7.0,8.0,95,0.00,,,2.12,weatherlink.com 1.10,2013-09-18 01:51:00,
2013-09-17 22:06:00,76.2,75.0,29.99,ENE,64,4.0,8.0,95,0.00,,,2.12,weatherlink.com 1.10,2013-09-18 02:06:00,
2013-09-17 22:21:00,76.1,75.0,29.99,ENE,63,6.0,6.0,95,0.00,,,2.12,weatherlink.com 1.10,2013-09-18 02:21:00,
2013-09-17 22:36:00,76.0,75.0,30.00,ENE,63,3.0,7.0,95,0.00,,,2.12,weatherlink.com 1.10,2013-09-18 02:36:00,
2013-09-17 22:51:00,75.8,74.0,30.00,ENE,63,3.0,6.0,95,0.00,,,2.12,weatherlink.com 1.10,2013-09-18 02:51:00,
2013-09-17 23:06:00,75.7,74.0,30.00,ENE,63,5.0,5.0,95,0.00,,,2.12,weatherlink.com 1.10,2013-09-18 03:06:00,
2013-09-17 23:21:00,75.5,74.0,29.99,ENE,58,3.0,7.0,95,0.00,,,2.12,weatherlink.com 1.10,2013-09-18 03:21:00,
2013-09-17 23:36:00,75.5,74.0,29.99,ENE,58,5.0,7.0,95,0.00,,,2.12,weatherlink.com 1.10,2013-09-18 03:36:00,
2013-09-17 23:51:00,75.5,74.0,29.98,ENE,58,3.0,5.0,95,0.00,,,2.12,weatherlink.com 1.10,2013-09-18 03:51:00,